Time;durP1;ratioP1;P1;durP2;ratioP2;P2;SDS_P1;SDS_P2;PMS_P1;PMS_P2;Temp;Humidity;BMP_temperature;BMP_pressure;BME280_temperature;BME280_humidity;BME280_pressure;Samples;Min_cycle;Max_cycle;Signal;HPM_P1;HPM_P2
2021/05/07 00:00:56;;;;;;;3.22;1.40;;;6.70;90.40;;;;;;4955257;28;20455;-90
2021/05/07 00:03:22;;;;;;;2.97;1.38;;;6.60;90.20;;;;;;4956154;28;20054;-89
2021/05/07 00:05:56;;;;;;;3.30;1.52;;;6.60;90.30;;;;;;4961490;28;20054;-90
2021/05/07 00:08:29;;;;;;;3.25;1.60;;;6.60;90.40;;;;;;4975436;28;20094;-89
2021/05/07 00:10:57;;;;;;;3.33;1.40;;;6.60;90.40;;;;;;4975134;28;20487;-89
2021/05/07 00:13:23;;;;;;;5.00;1.45;;;6.60;90.30;;;;;;4974881;28;20156;-90
2021/05/07 00:15:49;;;;;;;4.10;1.27;;;6.60;90.30;;;;;;4974471;28;20498;-89
2021/05/07 00:18:15;;;;;;;3.70;1.52;;;6.60;90.30;;;;;;4975458;28;20414;-90
2021/05/07 00:20:41;;;;;;;2.90;1.40;;;6.60;90.30;;;;;;4974357;28;20482;-89
2021/05/07 00:23:06;;;;;;;2.22;1.20;;;6.50;90.30;;;;;;4975234;28;20058;-90
2021/05/07 00:25:32;;;;;;;3.72;1.45;;;6.50;90.30;;;;;;4974654;28;20058;-89
2021/05/07 00:28:06;;;;;;;4.00;1.25;;;6.50;90.30;;;;;;4973890;28;20070;-90
2021/05/07 00:30:32;;;;;;;2.83;1.42;;;6.50;90.10;;;;;;4974841;28;20384;-89
2021/05/07 00:32:58;;;;;;;2.83;1.17;;;6.50;90.10;;;;;;4974982;28;20050;-89
2021/05/07 00:35:24;;;;;;;4.25;1.52;;;6.50;90.00;;;;;;4960828;28;20050;-89
2021/05/07 00:37:50;;;;;;;4.20;1.60;;;6.50;90.00;;;;;;4974626;28;20047;-90
2021/05/07 00:40:16;;;;;;;4.00;1.48;;;6.40;89.90;;;;;;4974867;28;20065;-89
2021/05/07 00:42:42;;;;;;;2.35;1.38;;;6.40;89.90;;;;;;4974157;28;20443;-89
2021/05/07 00:45:11;;;;;;;2.83;1.40;;;6.40;90.00;;;;;;4974401;28;20065;-90
2021/05/07 00:47:52;;;;;;;2.35;1.33;;;6.40;90.00;;;;;;4974307;28;20466;-89
2021/05/07 00:50:18;;;;;;;2.78;1.33;;;6.30;90.10;;;;;;4974719;28;20058;-89
2021/05/07 00:52:44;;;;;;;5.57;1.40;;;6.30;90.10;;;;;;4974350;28;20055;-89
2021/05/07 00:55:11;;;;;;;2.80;1.27;;;6.30;90.20;;;;;;4973907;28;20089;-90
2021/05/07 00:57:38;;;;;;;3.90;1.60;;;6.30;90.20;;;;;;4974209;28;20050;-89
2021/05/07 01:00:09;;;;;;;4.72;1.60;;;6.20;90.10;;;;;;4974442;28;20623;-89
2021/05/07 01:02:35;;;;;;;4.38;1.40;;;6.30;90.10;;;;;;4973622;28;20406;-89
2021/05/07 01:05:02;;;;;;;4.25;1.60;;;6.20;90.10;;;;;;4973655;28;20058;-89
2021/05/07 01:07:28;;;;;;;3.95;1.50;;;6.20;90.20;;;;;;4974178;28;20064;-89
2021/05/07 01:09:54;;;;;;;3.55;1.52;;;6.20;90.30;;;;;;4973518;28;20138;-89
2021/05/07 01:12:20;;;;;;;2.47;1.38;;;6.20;90.30;;;;;;4974264;28;20507;-89
2021/05/07 01:15:16;;;;;;;4.72;1.60;;;6.10;90.30;;;;;;4973843;28;20093;-89
2021/05/07 01:17:50;;;;;;;3.00;1.60;;;6.10;90.30;;;;;;4973092;28;20109;-89
2021/05/07 01:20:21;;;;;;;2.92;1.73;;;6.10;90.50;;;;;;4974140;28;20047;-90
2021/05/07 01:22:49;;;;;;;2.88;1.48;;;6.10;90.60;;;;;;4973656;28;20094;-89
2021/05/07 01:25:18;;;;;;;3.85;1.55;;;6.00;90.60;;;;;;4972985;28;20445;-89
2021/05/07 01:27:46;;;;;;;3.45;1.67;;;6.10;90.60;;;;;;4973911;28;20050;-89
2021/05/07 01:30:18;;;;;;;3.47;1.45;;;6.10;90.70;;;;;;4973447;28;20070;-89
2021/05/07 01:32:45;;;;;;;3.20;1.60;;;6.00;90.60;;;;;;4973721;28;20074;-89
2021/05/07 01:35:16;;;;;;;3.17;1.35;;;6.00;90.60;;;;;;4974007;28;20479;-89
2021/05/07 01:37:44;;;;;;;3.10;1.40;;;6.00;90.80;;;;;;4973190;28;20059;-88
2021/05/07 01:40:15;;;;;;;3.88;1.48;;;5.90;90.70;;;;;;4973836;28;20439;-89
2021/05/07 01:42:42;;;;;;;4.38;1.40;;;5.90;90.70;;;;;;4973198;28;20106;-88
2021/05/07 01:45:08;;;;;;;2.47;1.30;;;5.90;90.60;;;;;;4972996;28;20047;-89
2021/05/07 01:47:35;;;;;;;3.75;1.65;;;5.90;90.60;;;;;;4973570;28;20495;-89
2021/05/07 01:50:01;;;;;;;2.88;1.30;;;5.90;90.70;;;;;;4973309;28;20104;-89
2021/05/07 01:52:27;;;;;;;3.55;1.35;;;5.90;90.70;;;;;;4972445;28;20055;-89
2021/05/07 01:54:52;;;;;;;3.88;1.63;;;5.90;90.70;;;;;;4973509;28;20506;-89
2021/05/07 01:57:18;;;;;;;1.92;1.15;;;5.80;90.70;;;;;;4975263;28;20109;-88
2021/05/07 01:59:44;;;;;;;3.85;1.42;;;5.80;90.60;;;;;;4976965;28;20042;-90
2021/05/07 02:02:09;;;;;;;3.28;1.45;;;5.80;90.50;;;;;;4977892;28;20050;-88
2021/05/07 02:04:35;;;;;;;3.10;1.42;;;5.70;90.40;;;;;;4976930;28;20487;-89
2021/05/07 02:07:01;;;;;;;3.58;1.40;;;5.70;90.40;;;;;;4976835;28;20075;-89
2021/05/07 02:09:27;;;;;;;3.22;1.50;;;5.70;90.30;;;;;;4977806;28;20058;-90
2021/05/07 02:11:52;;;;;;;3.38;1.52;;;5.70;90.40;;;;;;4977141;28;20051;-89
2021/05/07 02:14:18;;;;;;;2.92;1.40;;;5.70;90.40;;;;;;4976618;28;20079;-89
2021/05/07 02:16:44;;;;;;;2.75;1.30;;;5.60;90.30;;;;;;4976992;28;20138;-89
2021/05/07 02:19:09;;;;;;;3.10;1.50;;;5.60;90.30;;;;;;4977461;28;20073;-89
2021/05/07 02:21:35;;;;;;;4.45;1.48;;;5.60;90.20;;;;;;4976233;28;20051;-90
2021/05/07 02:24:01;;;;;;;3.15;1.60;;;5.60;90.20;;;;;;4976992;28;20146;-88
2021/05/07 02:26:27;;;;;;;3.90;1.58;;;5.60;90.20;;;;;;4976549;28;20134;-88
2021/05/07 02:28:53;;;;;;;3.55;1.70;;;5.50;90.30;;;;;;4976790;28;20051;-90
2021/05/07 02:31:18;;;;;;;3.67;1.40;;;5.60;90.40;;;;;;4977017;28;20050;-89
2021/05/07 02:33:44;;;;;;;2.97;1.50;;;5.60;90.40;;;;;;4976067;28;20479;-88
2021/05/07 02:36:10;;;;;;;4.15;1.50;;;5.50;90.40;;;;;;4976870;28;20109;-88
2021/05/07 02:38:37;;;;;;;2.97;1.50;;;5.40;90.30;;;;;;4976711;28;20491;-88
2021/05/07 02:41:03;;;;;;;3.28;1.70;;;5.40;90.30;;;;;;4976040;28;20051;-88
2021/05/07 02:43:30;;;;;;;3.30;1.73;;;5.40;90.40;;;;;;4976775;28;20057;-89
2021/05/07 02:45:56;;;;;;;4.55;1.83;;;5.40;90.40;;;;;;4976809;28;20058;-89
2021/05/07 02:48:22;;;;;;;3.03;1.65;;;5.40;90.40;;;;;;4967848;28;20058;-88
2021/05/07 02:50:48;;;;;;;3.90;1.73;;;5.30;90.50;;;;;;4957443;28;20051;-88
2021/05/07 02:53:13;;;;;;;4.15;1.70;;;5.30;90.70;;;;;;4965024;28;20065;-88
2021/05/07 02:55:39;;;;;;;4.35;1.80;;;5.30;90.90;;;;;;4975651;28;20047;-89
2021/05/07 02:58:05;;;;;;;3.33;1.70;;;5.30;90.80;;;;;;4965065;28;20145;-89
2021/05/07 03:00:31;;;;;;;3.42;1.80;;;5.30;90.80;;;;;;4974657;28;20051;-88
2021/05/07 03:02:56;;;;;;;4.68;1.80;;;5.30;90.80;;;;;;4975411;28;20063;-88
2021/05/07 03:05:22;;;;;;;3.97;1.75;;;5.30;90.80;;;;;;4976567;28;20046;-88
2021/05/07 03:07:48;;;;;;;3.95;1.90;;;5.20;90.70;;;;;;4975551;28;20065;-88
2021/05/07 03:10:15;;;;;;;3.10;1.77;;;5.30;90.70;;;;;;4975597;28;20129;-88
2021/05/07 03:12:41;;;;;;;3.42;1.80;;;5.20;90.80;;;;;;4976080;28;20133;-88
2021/05/07 03:15:07;;;;;;;4.28;2.10;;;5.20;90.90;;;;;;4976514;28;20047;-89
2021/05/07 03:17:33;;;;;;;4.25;1.65;;;5.20;90.90;;;;;;4976083;28;20050;-89
2021/05/07 03:19:58;;;;;;;3.88;1.58;;;5.20;91.00;;;;;;4976034;28;20054;-89
2021/05/07 03:22:24;;;;;;;5.05;1.92;;;5.10;90.80;;;;;;4976526;28;20078;-90
2021/05/07 03:24:50;;;;;;;3.35;1.80;;;5.10;90.90;;;;;;4975477;28;20051;-89
2021/05/07 03:27:17;;;;;;;3.85;1.88;;;5.10;90.90;;;;;;4976301;28;20513;-89
2021/05/07 03:29:43;;;;;;;3.28;1.75;;;5.10;90.90;;;;;;4975494;28;20050;-88
2021/05/07 03:32:08;;;;;;;2.83;1.60;;;5.10;90.70;;;;;;4976081;28;20050;-89
2021/05/07 03:34:34;;;;;;;4.50;1.80;;;5.00;90.60;;;;;;4976146;28;20070;-89
2021/05/07 03:37:00;;;;;;;3.58;1.88;;;5.00;90.60;;;;;;4975002;28;20051;-89
2021/05/07 03:39:25;;;;;;;4.53;2.10;;;5.00;90.50;;;;;;4976168;28;20518;-89
2021/05/07 03:41:51;;;;;;;3.03;1.65;;;5.00;90.40;;;;;;4975460;28;20059;-89
2021/05/07 03:44:17;;;;;;;3.88;1.85;;;4.90;90.50;;;;;;4975486;28;20098;-89
2021/05/07 03:46:43;;;;;;;3.50;1.83;;;4.90;90.50;;;;;;4975261;28;20094;-90
2021/05/07 03:49:08;;;;;;;3.85;1.88;;;4.90;90.60;;;;;;4976231;28;20131;-88
2021/05/07 03:51:34;;;;;;;3.80;2.30;;;4.80;90.70;;;;;;4975538;28;20481;-89
2021/05/07 03:53:59;;;;;;;3.63;1.80;;;4.80;90.70;;;;;;4975174;28;20051;-90
2021/05/07 03:56:25;;;;;;;4.45;2.10;;;4.80;90.70;;;;;;4974152;28;20058;-87
2021/05/07 03:58:51;;;;;;;4.80;1.92;;;4.80;90.70;;;;;;4974515;28;20495;-87
2021/05/07 04:01:17;;;;;;;3.50;1.70;;;4.80;90.80;;;;;;4975716;28;20051;-86
2021/05/07 04:03:42;;;;;;;3.90;2.00;;;4.80;90.60;;;;;;4974109;28;20062;-88
2021/05/07 04:06:13;;;;;;;3.75;1.75;;;4.80;90.70;;;;;;4974035;28;20047;-88
2021/05/07 04:08:42;;;;;;;3.42;1.75;;;4.70;90.80;;;;;;4975194;28;20058;-89
2021/05/07 04:14:03;;;;;;;3.88;1.85;;;4.70;90.80;;;;;;4965891;28;20507;-89
2021/05/07 04:16:29;;;;;;;3.65;1.88;;;4.70;90.70;;;;;;4975551;28;20055;-88
2021/05/07 04:18:55;;;;;;;3.47;1.90;;;4.70;90.80;;;;;;4974344;28;20570;-89
2021/05/07 04:21:22;;;;;;;3.95;2.17;;;4.70;90.90;;;;;;4974954;28;20503;-88
2021/05/07 04:23:48;;;;;;;5.15;2.20;;;4.80;91.10;;;;;;4974766;28;20059;-90
2021/05/07 04:26:14;;;;;;;3.53;2.08;;;4.70;91.00;;;;;;4974838;28;20057;-90
2021/05/07 04:28:40;;;;;;;3.22;1.77;;;4.70;91.00;;;;;;4975192;28;20051;-91
2021/05/07 04:31:06;;;;;;;3.17;2.10;;;4.80;91.00;;;;;;4975407;28;20051;-92
2021/05/07 04:33:32;;;;;;;4.03;2.10;;;4.80;90.90;;;;;;4974914;28;20050;-90
2021/05/07 04:35:57;;;;;;;3.60;1.88;;;4.80;90.90;;;;;;4975432;28;20054;-91
2021/05/07 04:38:23;;;;;;;2.83;1.50;;;4.80;90.80;;;;;;4976161;28;20047;-91
2021/05/07 04:40:49;;;;;;;3.40;1.80;;;4.80;90.80;;;;;;4974734;28;20062;-91
2021/05/07 04:43:14;;;;;;;4.80;1.60;;;4.80;90.80;;;;;;4975177;28;20047;-90
2021/05/07 04:45:40;;;;;;;3.92;1.80;;;4.80;90.80;;;;;;4975217;28;20050;-91
2021/05/07 04:48:14;;;;;;;3.38;1.77;;;4.80;90.80;;;;;;4974945;28;20096;-91
2021/05/07 04:50:41;;;;;;;3.95;1.58;;;4.80;90.70;;;;;;4975749;28;20054;-91
2021/05/07 04:53:07;;;;;;;2.80;1.55;;;4.80;90.60;;;;;;4975491;28;20050;-92
2021/05/07 04:55:32;;;;;;;2.78;1.50;;;4.80;90.60;;;;;;4974819;28;20177;-91
2021/05/07 04:57:58;;;;;;;3.28;1.33;;;4.80;90.50;;;;;;4974705;28;20055;-92
2021/05/07 05:00:24;;;;;;;3.33;1.50;;;4.80;90.40;;;;;;4975258;28;20046;-91
2021/05/07 05:02:51;;;;;;;2.33;1.20;;;4.80;90.40;;;;;;4974433;28;20133;-90
2021/05/07 05:05:18;;;;;;;2.40;1.27;;;4.80;90.40;;;;;;4974961;28;20134;-91
2021/05/07 05:07:51;;;;;;;2.95;1.50;;;4.80;90.40;;;;;;4974798;28;20070;-92
2021/05/07 05:10:21;;;;;;;2.30;1.45;;;4.80;90.50;;;;;;4974535;28;20051;-91
2021/05/07 05:12:47;;;;;;;2.67;1.08;;;4.80;90.50;;;;;;4974856;28;20058;-93
2021/05/07 05:15:14;;;;;;;2.33;1.15;;;4.80;90.50;;;;;;4974628;28;20054;-92
2021/05/07 05:17:40;;;;;;;1.98;0.98;;;4.80;90.50;;;;;;4974600;28;20092;-91
2021/05/07 05:20:08;;;;;;;4.07;1.40;;;4.70;90.40;;;;;;4974308;28;20053;-90
2021/05/07 05:22:33;;;;;;;3.90;1.20;;;4.80;90.50;;;;;;4973353;28;20617;-90
2021/05/07 05:25:04;;;;;;;1.25;0.70;;;4.80;90.50;;;;;;4974137;28;20046;-91
2021/05/07 05:27:31;;;;;;;2.03;1.05;;;4.80;90.50;;;;;;4974457;28;20105;-90
2021/05/07 05:29:56;;;;;;;2.80;1.10;;;4.80;90.50;;;;;;4973808;28;20467;-91
2021/05/07 05:32:22;;;;;;;2.58;1.20;;;4.80;90.50;;;;;;4973335;28;20418;-90
2021/05/07 05:34:49;;;;;;;1.88;1.15;;;4.80;90.60;;;;;;4973761;28;20051;-91
2021/05/07 05:37:14;;;;;;;3.13;1.10;;;4.90;90.60;;;;;;4974160;28;20403;-91
2021/05/07 05:39:40;;;;;;;1.65;0.80;;;4.80;90.50;;;;;;4974042;28;20051;-90
2021/05/07 05:42:06;;;;;;;1.63;1.05;;;4.90;90.50;;;;;;4974245;28;20084;-91
2021/05/07 05:44:32;;;;;;;1.92;1.00;;;4.90;90.60;;;;;;4973490;28;20422;-90
2021/05/07 05:46:57;;;;;;;2.38;1.02;;;4.90;90.60;;;;;;4973711;28;20415;-92
2021/05/07 05:49:23;;;;;;;1.63;0.80;;;4.90;90.70;;;;;;4974523;28;20046;-91
2021/05/07 05:51:49;;;;;;;2.80;1.02;;;4.90;90.70;;;;;;4972223;28;20174;-91
2021/05/07 05:54:14;;;;;;;1.10;0.77;;;4.90;90.60;;;;;;4972246;28;20533;-90
2021/05/07 05:56:42;;;;;;;1.70;0.80;;;4.90;90.50;;;;;;4972787;28;20049;-91
2021/05/07 05:59:08;;;;;;;1.20;0.70;;;5.00;90.50;;;;;;4972755;28;20443;-92
2021/05/07 06:01:33;;;;;;;1.85;0.73;;;5.00;90.50;;;;;;4972926;28;20045;-91
2021/05/07 06:03:59;;;;;;;2.40;0.95;;;5.00;90.50;;;;;;4973274;28;20042;-93
2021/05/07 06:06:24;;;;;;;1.60;0.90;;;5.00;90.50;;;;;;4973447;28;20055;-89
2021/05/07 06:08:50;;;;;;;1.35;0.80;;;5.00;90.50;;;;;;4973563;28;20046;-91
2021/05/07 06:11:16;;;;;;;1.92;0.80;;;5.00;90.60;;;;;;4973944;28;20411;-91
2021/05/07 06:13:42;;;;;;;1.55;0.80;;;5.00;90.60;;;;;;4973239;28;20047;-92
2021/05/07 06:16:08;;;;;;;1.55;0.90;;;5.00;90.70;;;;;;4974525;28;20059;-91
2021/05/07 06:18:33;;;;;;;2.33;1.00;;;5.10;90.60;;;;;;4975032;28;20043;-92
2021/05/07 06:20:59;;;;;;;1.90;0.90;;;5.10;90.60;;;;;;4973837;28;20054;-90
2021/05/07 06:23:25;;;;;;;1.42;0.70;;;5.20;90.70;;;;;;4973346;28;20153;-87
2021/05/07 06:25:50;;;;;;;2.20;0.70;;;5.20;90.60;;;;;;4972392;28;20050;-88
2021/05/07 06:28:17;;;;;;;2.22;1.00;;;5.30;90.60;;;;;;4973035;28;20402;-85
2021/05/07 06:30:43;;;;;;;3.33;1.00;;;5.40;90.60;;;;;;4973421;28;20050;-85
2021/05/07 06:33:09;;;;;;;2.47;1.00;;;5.40;90.60;;;;;;4972522;28;20526;-89
2021/05/07 06:35:34;;;;;;;1.90;0.80;;;5.60;91.00;;;;;;4973292;28;20549;-87
2021/05/07 06:38:02;;;;;;;2.42;0.98;;;5.60;90.70;;;;;;4973436;28;20054;-86
2021/05/07 06:40:27;;;;;;;2.83;0.98;;;5.80;90.70;;;;;;4970966;28;20517;-86
2021/05/07 06:42:53;;;;;;;2.05;0.85;;;5.80;90.70;;;;;;4973441;28;20050;-91
2021/05/07 06:45:19;;;;;;;1.90;0.80;;;5.90;90.60;;;;;;4976395;28;20449;-91
2021/05/07 06:47:45;;;;;;;2.05;0.90;;;6.00;90.50;;;;;;4976014;28;20514;-89
2021/05/07 06:50:13;;;;;;;4.28;1.10;;;6.10;90.50;;;;;;4974961;28;20050;-89
2021/05/07 06:52:41;;;;;;;3.20;1.10;;;6.20;90.60;;;;;;4976650;28;20498;-89
2021/05/07 06:55:08;;;;;;;1.88;0.90;;;6.20;90.50;;;;;;4975988;28;20043;-88
2021/05/07 06:57:35;;;;;;;2.28;0.90;;;6.30;90.50;;;;;;4976757;28;20054;-90
2021/05/07 07:00:00;;;;;;;2.30;1.30;;;6.40;90.40;;;;;;4973114;28;20054;-92
2021/05/07 07:02:26;;;;;;;3.97;1.60;;;6.40;90.40;;;;;;4973206;28;20051;-91
2021/05/07 07:04:54;;;;;;;2.60;1.25;;;6.50;90.40;;;;;;4976773;28;20137;-91
2021/05/07 07:07:24;;;;;;;3.80;1.88;;;6.50;90.30;;;;;;4976942;28;20050;-92
2021/05/07 07:09:50;;;;;;;3.67;1.55;;;6.60;90.40;;;;;;4972952;28;20046;-89
2021/05/07 07:12:16;;;;;;;5.75;2.15;;;6.70;90.30;;;;;;4966681;28;20046;-89
2021/05/07 07:14:42;;;;;;;5.32;1.90;;;6.80;90.40;;;;;;4970252;28;20058;-88
2021/05/07 07:17:07;;;;;;;5.05;2.00;;;6.90;90.40;;;;;;4975189;28;20062;-87
2021/05/07 07:19:34;;;;;;;4.15;1.95;;;7.00;90.40;;;;;;4972415;28;20479;-86
2021/05/07 07:22:01;;;;;;;4.88;2.00;;;7.20;90.20;;;;;;4973911;28;20121;-88
2021/05/07 07:24:27;;;;;;;3.10;1.80;;;7.30;90.00;;;;;;4975503;28;20105;-88
2021/05/07 07:26:54;;;;;;;6.03;2.00;;;7.40;89.80;;;;;;4971780;28;20057;-87
2021/05/07 07:29:20;;;;;;;5.47;2.00;;;7.40;89.60;;;;;;4975634;28;20141;-89
2021/05/07 07:31:46;;;;;;;5.70;1.88;;;7.50;89.30;;;;;;4977347;28;20077;-91
2021/05/07 07:34:11;;;;;;;4.15;1.65;;;7.60;89.30;;;;;;4976465;28;20479;-89
2021/05/07 07:36:38;;;;;;;2.90;1.60;;;7.70;89.30;;;;;;4975256;28;20480;-88
2021/05/07 07:39:04;;;;;;;4.40;1.80;;;7.80;89.40;;;;;;4976151;28;20059;-87
2021/05/07 07:41:30;;;;;;;5.75;2.35;;;7.90;89.10;;;;;;4975706;28;20106;-84
2021/05/07 07:43:55;;;;;;;4.68;1.83;;;8.00;88.80;;;;;;4974869;28;20058;-84
2021/05/07 07:46:21;;;;;;;6.22;2.00;;;8.10;88.80;;;;;;4975927;28;20479;-86
2021/05/07 07:48:47;;;;;;;6.55;2.22;;;8.10;88.40;;;;;;4975735;28;20051;-85
2021/05/07 07:51:12;;;;;;;5.75;2.10;;;8.20;88.30;;;;;;4975145;28;20046;-85
2021/05/07 07:53:38;;;;;;;4.63;1.90;;;8.30;87.70;;;;;;4975349;28;20054;-85
2021/05/07 07:56:04;;;;;;;6.50;2.25;;;8.40;87.80;;;;;;4974341;28;20046;-85
2021/05/07 07:58:29;;;;;;;4.32;2.10;;;8.50;87.80;;;;;;4975104;28;20109;-85
2021/05/07 08:00:55;;;;;;;3.90;2.00;;;8.50;87.70;;;;;;4975515;28;20051;-85
2021/05/07 08:03:21;;;;;;;5.13;2.00;;;8.60;87.30;;;;;;4975696;28;20058;-84
2021/05/07 08:05:47;;;;;;;5.80;1.83;;;8.70;86.50;;;;;;4974419;28;20130;-84
2021/05/07 08:08:13;;;;;;;4.63;1.90;;;8.80;85.70;;;;;;4975469;28;20142;-88
2021/05/07 08:10:38;;;;;;;5.50;1.90;;;8.90;85.50;;;;;;4975268;28;20057;-88
2021/05/07 08:13:04;;;;;;;4.85;1.88;;;9.00;85.50;;;;;;4975130;28;20089;-89
2021/05/07 08:15:30;;;;;;;4.78;1.90;;;9.10;85.00;;;;;;4975790;28;20101;-88
2021/05/07 08:17:56;;;;;;;3.60;1.63;;;9.20;84.50;;;;;;4974973;28;20517;-90
2021/05/07 08:20:22;;;;;;;3.95;1.52;;;9.20;84.20;;;;;;4975126;28;20118;-88
2021/05/07 08:22:48;;;;;;;4.32;1.50;;;9.30;83.80;;;;;;4972912;28;20137;-87
2021/05/07 08:25:15;;;;;;;4.13;1.58;;;9.40;83.40;;;;;;4958285;28;20053;-94
2021/05/07 08:27:42;;;;;;;5.13;1.80;;;9.40;83.30;;;;;;4961601;28;20061;-90
2021/05/07 08:30:10;;;;;;;5.13;1.90;;;9.50;82.90;;;;;;4962181;28;20054;-84
2021/05/07 08:32:35;;;;;;;4.05;1.42;;;9.60;82.90;;;;;;4964709;28;20054;-86
2021/05/07 08:35:02;;;;;;;6.28;1.52;;;9.60;83.20;;;;;;4973369;28;20043;-88
2021/05/07 08:37:27;;;;;;;5.20;1.58;;;9.70;82.10;;;;;;4973751;28;20057;-91
2021/05/07 08:39:54;;;;;;;3.72;1.42;;;9.80;81.60;;;;;;4967392;28;20054;-91
2021/05/07 08:42:21;;;;;;;4.32;1.38;;;9.80;81.00;;;;;;4975179;28;20498;-89
2021/05/07 08:44:50;;;;;;;5.85;1.60;;;9.90;80.40;;;;;;4974921;28;20050;-89
2021/05/07 08:47:18;;;;;;;5.78;1.50;;;9.90;80.40;;;;;;4969433;28;20047;-89
2021/05/07 08:49:46;;;;;;;4.38;1.38;;;10.00;79.70;;;;;;4974041;28;20046;-90
2021/05/07 08:52:12;;;;;;;5.03;1.35;;;10.10;78.80;;;;;;4970225;28;20042;-89
2021/05/07 08:54:38;;;;;;;3.45;1.30;;;10.20;79.30;;;;;;4973973;28;20058;-90
2021/05/07 08:57:03;;;;;;;5.03;1.55;;;10.30;78.90;;;;;;4974818;28;20069;-88
2021/05/07 08:59:29;;;;;;;4.47;1.30;;;10.30;78.70;;;;;;4973336;28;20066;-89
2021/05/07 09:01:56;;;;;;;4.35;1.55;;;10.50;78.50;;;;;;4972785;28;20047;-88
2021/05/07 09:04:22;;;;;;;4.57;1.45;;;10.60;78.00;;;;;;4970290;28;20047;-90
2021/05/07 09:06:55;;;;;;;5.40;1.40;;;10.70;77.90;;;;;;4971408;28;20047;-89
2021/05/07 09:09:26;;;;;;;3.13;1.10;;;10.70;76.40;;;;;;4970564;28;20054;-88
2021/05/07 09:11:52;;;;;;;5.32;1.50;;;10.80;75.40;;;;;;4970679;28;20046;-90
2021/05/07 09:14:19;;;;;;;5.00;1.23;;;10.90;75.50;;;;;;4969792;28;20047;-96
2021/05/07 09:16:53;;;;;;;5.18;1.20;;;11.00;74.00;;;;;;4974458;28;20550;-93
2021/05/07 09:19:24;;;;;;;4.60;1.50;;;11.00;73.40;;;;;;4975952;28;20090;-92
2021/05/07 09:21:51;;;;;;;4.63;1.20;;;11.00;73.30;;;;;;4972679;28;20042;-94
2021/05/07 09:24:17;;;;;;;3.60;1.05;;;11.00;74.00;;;;;;4973437;28;20047;-92
2021/05/07 09:26:50;;;;;;;5.32;1.17;;;10.90;73.80;;;;;;4973353;28;20054;-91
2021/05/07 09:29:24;;;;;;;5.63;1.40;;;10.90;74.00;;;;;;4966431;28;20055;-92
2021/05/07 09:31:51;;;;;;;6.00;1.20;;;10.80;74.00;;;;;;4976763;28;20109;-92
2021/05/07 09:34:19;;;;;;;5.15;1.25;;;10.90;73.60;;;;;;4975271;28;20051;-93
2021/05/07 09:36:46;;;;;;;6.05;1.10;;;10.90;72.30;;;;;;4976659;28;20454;-93
2021/05/07 09:39:22;;;;;;;3.47;1.05;;;10.80;71.60;;;;;;4976509;28;20483;-91
2021/05/07 09:41:50;;;;;;;3.13;1.20;;;10.80;71.30;;;;;;4973751;28;20059;-91
2021/05/07 09:44:24;;;;;;;6.55;0.75;;;10.90;72.50;;;;;;4970571;28;20054;-92
2021/05/07 09:46:51;;;;;;;4.80;1.02;;;11.00;71.80;;;;;;4971812;28;20399;-89
2021/05/07 09:49:30;;;;;;;3.22;1.00;;;11.10;72.80;;;;;;4973416;28;20051;-91
2021/05/07 09:51:57;;;;;;;2.60;0.88;;;11.20;71.10;;;;;;4975197;28;20058;-93
2021/05/07 09:54:24;;;;;;;5.20;1.00;;;11.30;69.50;;;;;;4975863;28;20150;-93
2021/05/07 09:56:50;;;;;;;3.05;0.82;;;11.40;69.10;;;;;;4972771;28;20043;-92
2021/05/07 09:59:18;;;;;;;3.10;0.70;;;11.40;68.10;;;;;;4973970;28;20164;-90
2021/05/07 10:01:47;;;;;;;4.50;0.90;;;11.50;66.30;;;;;;4956539;28;20047;-89
2021/05/07 10:04:13;;;;;;;2.17;0.85;;;11.50;67.20;;;;;;4966577;28;20057;-86
2021/05/07 10:06:40;;;;;;;3.42;0.80;;;11.50;68.00;;;;;;4970277;28;20055;-92
2021/05/07 10:09:07;;;;;;;3.88;1.05;;;11.60;67.50;;;;;;4954985;28;20051;-95
2021/05/07 10:11:45;;;;;;;3.38;0.90;;;11.50;66.70;;;;;;4965682;28;20054;-91
2021/05/07 10:14:13;;;;;;;2.47;0.73;;;11.50;66.90;;;;;;4969349;28;20113;-88
2021/05/07 10:16:39;;;;;;;3.20;0.90;;;11.50;66.30;;;;;;4968035;28;20058;-89
2021/05/07 10:19:08;;;;;;;3.97;0.88;;;11.50;67.40;;;;;;4968531;28;20059;-89
2021/05/07 10:21:38;;;;;;;3.92;0.80;;;11.60;67.90;;;;;;4970041;28;20447;-89
2021/05/07 10:24:08;;;;;;;2.25;0.90;;;11.70;67.40;;;;;;4964377;28;20043;-87
2021/05/07 10:26:42;;;;;;;3.03;0.90;;;11.80;66.30;;;;;;4976612;28;20098;-88
2021/05/07 10:29:37;;;;;;;3.55;0.80;;;11.80;65.40;;;;;;4967432;28;20130;-87
2021/05/07 10:32:03;;;;;;;3.05;0.93;;;11.80;61.80;;;;;;4956417;28;20126;-86
2021/05/07 10:34:29;;;;;;;1.70;0.70;;;11.90;64.40;;;;;;4961415;28;20074;-89
2021/05/07 10:36:57;;;;;;;2.58;0.80;;;11.90;64.30;;;;;;4958955;28;20475;-85
2021/05/07 10:39:26;;;;;;;3.20;0.77;;;11.90;64.10;;;;;;4976065;28;20490;-89
2021/05/07 10:41:54;;;;;;;1.67;0.60;;;11.90;63.50;;;;;;4968726;28;20063;-86
2021/05/07 10:44:22;;;;;;;3.25;0.57;;;12.00;64.00;;;;;;4967316;28;20558;-85
2021/05/07 10:46:58;;;;;;;3.95;0.60;;;12.10;63.30;;;;;;4968884;28;20062;-87
2021/05/07 10:49:33;;;;;;;2.47;0.70;;;12.10;63.00;;;;;;4972822;28;20126;-85
2021/05/07 10:51:59;;;;;;;2.90;0.80;;;12.20;63.70;;;;;;4961969;28;20054;-83
2021/05/07 10:54:35;;;;;;;59.53;10.50;;;12.30;63.50;;;;;;4970838;28;20067;-85
2021/05/07 10:57:01;;;;;;;52.70;12.18;;;12.30;62.20;;;;;;4972171;28;20051;-86
2021/05/07 11:00:16;;;;;;;3.35;0.88;;;12.30;62.60;;;;;;4988152;28;20594;-90
2021/05/07 11:02:48;;;;;;;3.47;0.80;;;12.20;58.90;;;;;;4966596;28;20055;-91
2021/05/07 11:05:34;;;;;;;2.28;0.63;;;12.20;62.30;;;;;;4968354;28;20078;-89
2021/05/07 11:08:00;;;;;;;4.55;0.80;;;12.20;62.40;;;;;;4967794;28;20695;-90
2021/05/07 11:10:29;;;;;;;3.42;0.90;;;12.30;63.20;;;;;;4969560;28;20046;-89
2021/05/07 11:12:56;;;;;;;3.00;0.95;;;12.40;62.40;;;;;;4984326;28;20094;-88
2021/05/07 11:15:24;;;;;;;3.22;0.90;;;12.50;64.20;;;;;;4975770;28;20059;-87
2021/05/07 11:18:05;;;;;;;2.17;0.70;;;12.50;62.00;;;;;;4967837;28;20081;-92
2021/05/07 11:20:34;;;;;;;3.72;0.95;;;12.50;60.40;;;;;;4983639;28;20062;-88
2021/05/07 11:23:02;;;;;;;2.47;0.80;;;12.40;62.10;;;;;;4970295;28;20119;-85
2021/05/07 11:25:34;;;;;;;4.30;0.90;;;12.40;62.80;;;;;;4977466;28;20051;-93
2021/05/07 11:28:18;;;;;;;2.50;0.80;;;12.40;64.30;;;;;;4970363;28;20082;-93
2021/05/07 11:30:54;;;;;;;2.35;0.60;;;12.50;63.80;;;;;;4975790;28;20127;-91
2021/05/07 11:33:25;;;;;;;3.70;0.90;;;12.70;62.80;;;;;;4972466;28;20070;-91
2021/05/07 11:36:09;;;;;;;5.50;0.90;;;12.70;63.70;;;;;;4972703;28;20109;-90
2021/05/07 11:38:36;;;;;;;2.30;0.73;;;12.80;64.20;;;;;;4974640;28;20058;-87
2021/05/07 11:41:03;;;;;;;2.38;0.60;;;12.80;64.40;;;;;;4970350;28;20057;-88
2021/05/07 11:43:29;;;;;;;3.08;0.70;;;12.90;62.90;;;;;;4973476;28;20050;-88
2021/05/07 11:46:04;;;;;;;3.17;0.70;;;12.90;63.50;;;;;;4965577;28;20051;-87
2021/05/07 11:48:30;;;;;;;4.28;0.85;;;12.90;63.30;;;;;;4966294;28;20081;-90
2021/05/07 11:51:02;;;;;;;3.15;0.70;;;13.00;63.50;;;;;;4966670;28;20058;-90
2021/05/07 11:53:27;;;;;;;3.00;0.90;;;13.00;63.30;;;;;;4960682;28;20123;-89
2021/05/07 11:55:53;;;;;;;4.15;0.70;;;13.00;62.10;;;;;;4972835;28;20170;-88
2021/05/07 11:58:33;;;;;;;1.83;0.80;;;13.00;61.30;;;;;;4975184;28;20050;-88
2021/05/07 12:00:58;;;;;;;3.58;0.70;;;13.00;61.60;;;;;;4975634;28;20051;-91
2021/05/07 12:03:36;;;;;;;4.78;0.70;;;13.00;62.70;;;;;;4974896;28;20058;-90
2021/05/07 12:06:21;;;;;;;3.10;0.70;;;13.00;59.60;;;;;;4975539;28;20042;-88
2021/05/07 12:08:49;;;;;;;3.65;0.75;;;13.00;59.80;;;;;;4975616;28;20070;-89
2021/05/07 12:11:16;;;;;;;1.85;0.63;;;13.00;61.20;;;;;;4975318;28;20054;-90
2021/05/07 12:13:42;;;;;;;3.03;0.88;;;13.00;61.60;;;;;;4975346;28;20042;-91
2021/05/07 12:16:08;;;;;;;2.50;0.70;;;13.00;61.90;;;;;;4975415;28;20558;-90
2021/05/07 12:18:38;;;;;;;2.88;0.70;;;13.00;62.40;;;;;;4974686;28;20055;-89
2021/05/07 12:21:05;;;;;;;3.15;0.88;;;13.10;63.10;;;;;;4975511;28;20113;-90
2021/05/07 12:23:43;;;;;;;5.25;0.90;;;13.10;61.40;;;;;;4975499;28;20054;-90
2021/05/07 12:26:10;;;;;;;3.97;0.88;;;13.10;61.40;;;;;;4975015;28;20190;-89
2021/05/07 12:28:36;;;;;;;3.72;0.80;;;13.20;63.50;;;;;;4975523;28;20486;-90
2021/05/07 12:31:06;;;;;;;3.55;0.80;;;13.20;63.30;;;;;;4975202;28;20538;-90
2021/05/07 12:33:35;;;;;;;3.45;0.95;;;13.30;63.00;;;;;;4975284;28;20466;-88
2021/05/07 12:36:02;;;;;;;3.28;0.95;;;13.30;64.50;;;;;;4974885;28;20486;-90
2021/05/07 12:38:35;;;;;;;2.95;0.90;;;13.30;63.30;;;;;;4974527;28;20162;-90
2021/05/07 12:41:07;;;;;;;4.30;0.93;;;13.30;63.50;;;;;;4974237;28;20077;-89
2021/05/07 12:43:36;;;;;;;3.88;1.10;;;13.30;64.20;;;;;;4974917;28;20065;-91
2021/05/07 12:46:02;;;;;;;3.53;1.00;;;13.30;64.00;;;;;;4973273;28;20043;-91
2021/05/07 12:48:28;;;;;;;4.47;1.20;;;13.30;65.00;;;;;;4975158;28;20061;-91
2021/05/07 12:50:54;;;;;;;3.50;0.70;;;13.30;64.40;;;;;;4974649;28;20050;-89
2021/05/07 12:53:22;;;;;;;3.03;0.90;;;13.30;64.70;;;;;;4974065;28;20054;-90
2021/05/07 12:55:49;;;;;;;3.00;1.00;;;13.30;63.70;;;;;;4974271;28;20074;-90
2021/05/07 12:58:15;;;;;;;2.85;0.85;;;13.40;63.60;;;;;;4974701;28;20133;-90